Time;durP1;ratioP1;P1;durP2;ratioP2;P2;SDS_P1;SDS_P2;PMS_P1;PMS_P2;Temp;Humidity;BMP_temperature;BMP_pressure;BME280_temperature;BME280_humidity;BME280_pressure;Samples;Min_cycle;Max_cycle;Signal;HPM_P1;HPM_P2
2022/06/22 00:00:06;;;;;;;5.22;2.90;;;;;;;17.45;48.55;100689.31;681547;29;2066;-77
2022/06/22 00:00:37;;;;;;;4.40;2.80;;;;;;;17.46;48.42;100697.19;681813;29;1418;-77
2022/06/22 00:01:10;;;;;;;4.47;2.80;;;;;;;17.51;48.36;100697.19;679766;29;1251;-77
2022/06/22 00:01:46;;;;;;;3.92;2.80;;;;;;;17.53;48.37;100701.59;681773;29;1237;-77
2022/06/22 00:02:17;;;;;;;3.72;2.92;;;;;;;17.52;48.28;100693.69;682825;28;1637;-77
2022/06/22 00:02:43;;;;;;;4.40;3.00;;;;;;;17.59;48.31;100702.47;682693;29;1022;-77
2022/06/22 00:03:07;;;;;;;4.80;3.30;;;;;;;17.61;48.54;100696.31;683425;28;1451;-77
2022/06/22 00:03:29;;;;;;;4.40;3.20;;;;;;;17.62;48.34;100691.88;684284;28;1667;-77
2022/06/22 00:03:55;;;;;;;3.80;3.10;;;;;;;17.62;48.56;100684.88;682687;29;1349;-77
2022/06/22 00:04:20;;;;;;;5.40;3.13;;;;;;;17.67;48.71;100700.69;683421;28;2002;-77
2022/06/22 00:04:46;;;;;;;5.20;3.28;;;;;;;17.73;48.71;100697.13;685286;28;1167;-77
2022/06/22 00:05:32;;;;;;;5.43;3.10;;;;;;;17.72;48.94;100693.63;682277;29;1478;-77
2022/06/22 00:05:54;;;;;;;5.72;3.08;;;;;;;17.76;48.78;100682.16;679971;29;967;-77
2022/06/22 00:06:25;;;;;;;5.22;2.90;;;;;;;17.77;48.77;100683.91;683814;28;1787;-77
2022/06/22 00:06:55;;;;;;;3.58;3.17;;;;;;;17.87;48.78;100694.44;679880;28;2136;-77
2022/06/22 00:07:30;;;;;;;4.75;3.30;;;;;;;17.88;48.84;100688.31;684905;28;1574;-77
2022/06/22 00:08:05;;;;;;;9.02;3.30;;;;;;;17.92;48.69;100684.75;679881;29;987;-77
2022/06/22 00:08:30;;;;;;;4.20;2.90;;;;;;;17.95;48.63;100679.47;683357;28;1053;-77
2022/06/22 00:08:52;;;;;;;4.72;2.92;;;;;;;17.95;48.37;100680.34;682458;28;1148;-78
2022/06/22 00:09:35;;;;;;;4.65;3.00;;;;;;;17.97;48.31;100675.06;680651;29;1456;-77
2022/06/22 00:10:07;;;;;;;3.00;2.70;;;;;;;17.97;48.42;100672.44;682566;29;812;-77
2022/06/22 00:10:28;;;;;;;3.00;2.50;;;;;;;18.02;48.09;100680.31;681179;29;1403;-77
2022/06/22 00:11:11;;;;;;;3.23;2.60;;;;;;;18.02;48.11;100678.53;679869;29;1335;-77
2022/06/22 00:11:35;;;;;;;6.10;3.50;;;;;;;17.98;48.09;100673.28;679191;29;1225;-78
2022/06/22 00:11:57;;;;;;;7.40;4.10;;;;;;;18.03;47.91;100675.03;680056;29;897;-77
2022/06/22 00:12:24;;;;;;;6.40;3.90;;;;;;;18.00;48.03;100675.03;677514;29;2055;-76
2022/06/22 00:12:54;;;;;;;7.28;3.80;;;;;;;18.04;47.81;100679.44;682584;29;1014;-77
2022/06/22 00:13:21;;;;;;;4.88;3.10;;;;;;;18.03;47.74;100674.16;681511;29;1702;-77
2022/06/22 00:13:49;;;;;;;5.00;3.08;;;;;;;18.01;48.02;100675.94;682692;29;1352;-77
2022/06/22 00:14:19;;;;;;;5.72;3.17;;;;;;;18.02;47.87;100677.69;683281;28;1060;-77
2022/06/22 00:14:50;;;;;;;5.05;3.30;;;;;;;18.02;47.81;100675.03;682599;29;1170;-78
2022/06/22 00:15:29;;;;;;;4.15;3.30;;;;;;;17.97;47.95;100668.91;680802;29;1565;-77
2022/06/22 00:15:56;;;;;;;3.80;3.20;;;;;;;17.97;48.00;100671.53;682511;29;1177;-77
2022/06/22 00:16:25;;;;;;;4.65;3.45;;;;;;;17.95;48.06;100671.56;686345;28;1909;-77
2022/06/22 00:16:53;;;;;;;4.68;3.20;;;;;;;17.87;48.27;100660.13;682599;29;1066;-77
2022/06/22 00:17:18;;;;;;;4.50;2.88;;;;;;;17.92;48.15;100671.56;681164;28;2057;-77
2022/06/22 00:17:39;;;;;;;3.83;2.80;;;;;;;17.85;48.18;100656.63;683670;28;1077;-77
2022/06/22 00:18:02;;;;;;;3.10;2.80;;;;;;;17.79;48.11;100654.91;681929;29;1292;-77
2022/06/22 00:18:47;;;;;;;3.35;3.05;;;;;;;17.77;48.47;100660.16;685762;28;1666;-77
2022/06/22 00:19:23;;;;;;;4.00;3.20;;;;;;;17.80;48.28;100683.94;679752;29;1136;-77
2022/06/22 00:19:44;;;;;;;4.20;3.00;;;;;;;17.71;48.39;100669.88;676211;29;987;-77
2022/06/22 00:20:15;;;;;;;3.95;3.00;;;;;;;17.73;48.63;100663.72;682538;28;1161;-77
2022/06/22 00:20:36;;;;;;;3.55;2.80;;;;;;;17.68;48.58;100670.75;682674;28;1247;-77
2022/06/22 00:21:02;;;;;;;3.80;2.60;;;;;;;17.69;48.45;100677.78;682651;29;1151;-77
2022/06/22 00:21:22;;;;;;;4.78;2.85;;;;;;;17.68;48.56;100676.94;682201;28;1527;-77
2022/06/22 00:21:43;;;;;;;5.20;3.10;;;;;;;17.60;48.81;100675.19;679938;29;996;-77
2022/06/22 00:22:05;;;;;;;5.60;3.17;;;;;;;17.62;48.80;100676.06;682721;28;1054;-77
2022/06/22 00:22:26;;;;;;;5.93;3.28;;;;;;;17.60;48.95;100669.91;686132;28;1092;-77
2022/06/22 00:23:05;;;;;;;7.30;3.10;;;;;;;17.59;48.86;100666.41;690504;28;1295;-77
2022/06/22 00:23:35;;;;;;;6.18;3.03;;;;;;;17.60;48.93;100677.81;687449;28;1718;-77
2022/06/22 00:23:59;;;;;;;3.97;3.05;;;;;;;17.56;48.96;100678.72;674611;29;1556;-77
2022/06/22 00:24:23;;;;;;;3.25;2.80;;;;;;;17.58;48.97;100680.47;681515;29;1493;-77
2022/06/22 00:24:44;;;;;;;3.47;2.80;;;;;;;17.53;49.22;100679.63;682213;29;967;-77
2022/06/22 00:25:24;;;;;;;3.33;2.90;;;;;;;17.55;49.08;100680.47;679889;29;1151;-76
2022/06/22 00:25:46;;;;;;;3.80;3.13;;;;;;;17.52;48.97;100676.09;679526;29;1413;-77
2022/06/22 00:26:06;;;;;;;4.47;3.10;;;;;;;17.56;48.97;100681.38;682346;29;1851;-77
2022/06/22 00:26:36;;;;;;;4.50;3.20;;;;;;;17.47;49.05;100675.22;683927;28;1401;-77
2022/06/22 00:27:00;;;;;;;4.57;3.13;;;;;;;17.48;49.42;100668.19;685369;28;785;-77
2022/06/22 00:27:36;;;;;;;3.95;2.90;;;;;;;17.50;49.66;100672.56;684564;28;1370;-77
2022/06/22 00:28:50;;;;;;;3.63;2.80;;;;;;;17.58;49.81;100679.59;685694;28;1684;-77
2022/06/22 00:29:14;;;;;;;3.90;2.70;;;;;;;17.60;49.70;100680.47;681514;28;1929;-77
2022/06/22 00:29:36;;;;;;;4.57;3.05;;;;;;;17.60;49.50;100683.09;684263;28;1237;-78
2022/06/22 00:30:26;;;;;;;3.95;3.10;;;;;;;17.60;49.44;100681.34;679580;29;1328;-77
2022/06/22 00:30:47;;;;;;;3.25;2.92;;;;;;;17.52;49.31;100668.16;681122;29;1143;-77
2022/06/22 00:31:15;;;;;;;3.33;3.03;;;;;;;17.60;49.22;100672.56;679467;29;1659;-77
2022/06/22 00:31:58;;;;;;;3.38;3.08;;;;;;;17.57;48.99;100678.72;679386;29;1002;-77
2022/06/22 00:32:29;;;;;;;4.00;3.30;;;;;;;17.56;49.09;100670.81;676846;29;1673;-77
2022/06/22 00:33:16;;;;;;;5.05;3.42;;;;;;;17.56;49.15;100674.31;682503;29;987;-77
2022/06/22 00:33:37;;;;;;;3.95;3.10;;;;;;;17.50;49.14;100672.56;687316;28;1199;-77
2022/06/22 00:34:10;;;;;;;5.00;3.20;;;;;;;17.56;49.11;100676.94;682579;28;1370;-77
2022/06/22 00:34:33;;;;;;;5.38;3.30;;;;;;;17.58;49.29;100684.88;679886;29;1078;-77
2022/06/22 00:34:55;;;;;;;3.85;3.00;;;;;;;17.52;49.09;100677.84;679956;29;1110;-77
2022/06/22 00:35:37;;;;;;;3.90;3.17;;;;;;;17.57;49.20;100677.84;678469;29;962;-77
2022/06/22 00:36:00;;;;;;;4.63;3.50;;;;;;;17.58;49.37;100685.72;680190;29;861;-77
2022/06/22 00:36:21;;;;;;;3.92;3.30;;;;;;;17.54;49.33;100669.03;678712;28;1824;-77
2022/06/22 00:37:03;;;;;;;5.20;3.15;;;;;;;17.60;49.46;100677.81;683357;28;1085;-77
2022/06/22 00:37:30;;;;;;;6.18;3.20;;;;;;;17.60;49.50;100672.56;682941;28;1380;-77
2022/06/22 00:37:53;;;;;;;3.42;3.00;;;;;;;17.62;49.39;100676.06;682484;29;1278;-77
2022/06/22 00:38:18;;;;;;;4.72;3.00;;;;;;;17.59;49.32;100665.53;678625;29;1677;-78
2022/06/22 00:38:39;;;;;;;5.10;3.08;;;;;;;17.63;49.43;100672.53;677134;29;1355;-77
2022/06/22 00:39:18;;;;;;;5.47;3.00;;;;;;;17.67;49.25;100671.66;677445;29;855;-77
2022/06/22 00:39:42;;;;;;;4.68;2.95;;;;;;;17.62;49.22;100665.50;681070;28;1111;-77
2022/06/22 00:40:14;;;;;;;4.78;3.00;;;;;;;17.68;49.30;100670.75;686585;28;1550;-77
2022/06/22 00:40:36;;;;;;;3.63;3.00;;;;;;;17.65;49.10;100668.16;683653;28;1187;-77
2022/06/22 00:41:03;;;;;;;3.55;2.95;;;;;;;17.64;49.16;100669.03;684630;28;1884;-77
2022/06/22 00:41:25;;;;;;;4.07;3.20;;;;;;;17.63;49.35;100662.88;682979;28;1531;-77
2022/06/22 00:42:00;;;;;;;4.25;3.20;;;;;;;17.71;49.15;100673.41;682575;29;986;-77
2022/06/22 00:42:37;;;;;;;5.63;3.00;;;;;;;17.76;49.13;100660.19;684465;28;1117;-77
2022/06/22 00:42:58;;;;;;;4.82;2.90;;;;;;;17.78;48.75;100655.78;680030;29;2037;-77
2022/06/22 00:43:21;;;;;;;4.15;3.08;;;;;;;17.81;49.05;100661.94;682641;28;1950;-77
2022/06/22 00:43:42;;;;;;;3.70;2.90;;;;;;;17.81;48.85;100656.66;679181;29;1026;-77
2022/06/22 00:44:08;;;;;;;3.65;2.78;;;;;;;17.84;48.80;100661.03;681130;29;1445;-78
2022/06/22 00:44:33;;;;;;;3.50;2.80;;;;;;;17.84;48.96;100660.16;679793;29;1050;-77
2022/06/22 00:45:09;;;;;;;3.15;2.80;;;;;;;17.92;48.88;100668.91;682331;29;1189;-77
2022/06/22 00:45:34;;;;;;;3.42;2.80;;;;;;;17.90;48.95;100665.41;683740;28;1365;-77
2022/06/22 00:45:56;;;;;;;3.78;2.80;;;;;;;17.93;48.98;100666.28;685100;28;1339;-77
2022/06/22 00:46:23;;;;;;;3.85;3.00;;;;;;;17.87;48.91;100652.22;680307;28;1634;-77
2022/06/22 00:47:02;;;;;;;3.95;3.10;;;;;;;17.95;48.98;100664.50;677246;29;1444;-77
2022/06/22 00:47:26;;;;;;;4.68;3.00;;;;;;;17.99;48.88;100664.47;677674;29;1069;-77
2022/06/22 00:47:57;;;;;;;4.20;3.13;;;;;;;18.00;48.81;100667.13;681142;29;979;-77
2022/06/22 00:48:27;;;;;;;5.20;3.20;;;;;;;17.97;48.73;100661.88;684960;28;2031;-77
2022/06/22 00:48:51;;;;;;;5.30;3.20;;;;;;;17.94;48.68;100653.94;687761;28;1759;-77
2022/06/22 00:49:19;;;;;;;5.60;3.15;;;;;;;17.90;48.80;100649.56;679401;29;1966;-77
2022/06/22 00:49:43;;;;;;;4.38;3.00;;;;;;;17.87;48.78;100660.13;676357;29;1102;-77
2022/06/22 00:50:17;;;;;;;4.50;2.90;;;;;;;17.81;48.88;100651.38;684910;28;1920;-77
2022/06/22 00:50:46;;;;;;;5.45;3.10;;;;;;;17.87;49.20;100668.03;685108;28;1349;-77
2022/06/22 00:51:13;;;;;;;5.32;3.17;;;;;;;17.90;48.96;100676.84;681855;29;2320;-77
2022/06/22 00:51:39;;;;;;;5.07;3.30;;;;;;;17.90;49.05;100671.56;680143;29;1063;-77
2022/06/22 00:52:05;;;;;;;5.13;3.20;;;;;;;17.87;48.80;100662.75;677060;29;843;-77
2022/06/22 00:52:41;;;;;;;6.65;3.20;;;;;;;17.89;48.66;100663.66;680519;28;1332;-77
2022/06/22 00:53:17;;;;;;;4.95;3.00;;;;;;;17.95;48.71;100674.19;681428;29;1492;-77
2022/06/22 00:53:42;;;;;;;4.90;3.10;;;;;;;17.87;48.49;100655.75;682090;28;1161;-77
2022/06/22 00:54:12;;;;;;;4.30;3.10;;;;;;;17.92;48.24;100661.00;682345;29;1972;-77
2022/06/22 00:54:35;;;;;;;5.45;3.30;;;;;;;17.93;48.44;100661.00;681534;29;1059;-77
2022/06/22 00:54:56;;;;;;;5.63;3.67;;;;;;;17.97;48.30;100661.88;679911;29;939;-77
2022/06/22 00:55:38;;;;;;;4.22;3.55;;;;;;;17.95;48.24;100667.13;676725;29;1828;-77
2022/06/22 00:56:31;;;;;;;4.30;3.05;;;;;;;17.93;48.50;100657.47;681082;29;1205;-77
2022/06/22 00:57:02;;;;;;;4.78;3.10;;;;;;;17.93;48.34;100657.47;684202;28;895;-77
2022/06/22 00:57:31;;;;;;;5.88;3.28;;;;;;;17.94;48.17;100656.56;684198;28;1561;-77
2022/06/22 00:58:11;;;;;;;5.35;3.15;;;;;;;17.92;48.22;100650.44;683604;28;1343;-77
2022/06/22 00:58:43;;;;;;;3.30;3.00;;;;;;;17.95;48.19;100653.94;678641;29;1662;-77
2022/06/22 00:59:26;;;;;;;3.55;3.05;;;;;;;17.97;48.36;100656.59;684945;28;1507;-77
2022/06/22 01:00:13;;;;;;;5.95;3.10;;;;;;;18.01;48.20;100653.03;683149;28;1345;-77
2022/06/22 01:00:45;;;;;;;6.85;2.97;;;;;;;18.02;48.24;100659.19;684483;28;1871;-77
2022/06/22 01:01:08;;;;;;;5.57;3.00;;;;;;;18.01;48.23;100647.75;685178;28;1176;-77
2022/06/22 01:01:46;;;;;;;5.40;3.03;;;;;;;17.99;48.33;100652.16;683748;28;1359;-77
2022/06/22 01:02:28;;;;;;;5.20;2.97;;;;;;;18.00;48.27;100655.69;684853;28;1478;-77
2022/06/22 01:02:56;;;;;;;5.03;3.40;;;;;;;17.93;48.19;100644.28;685158;28;1099;-77
2022/06/22 01:03:24;;;;;;;4.50;3.20;;;;;;;17.93;48.34;100639.88;686450;28;1042;-77
2022/06/22 01:04:20;;;;;;;4.70;3.38;;;;;;;17.98;48.33;100650.41;689941;28;1574;-77
2022/06/22 01:04:51;;;;;;;4.97;3.67;;;;;;;17.93;48.21;100639.88;680312;29;1550;-77
2022/06/22 01:05:24;;;;;;;4.18;3.25;;;;;;;17.97;48.19;100648.66;684178;28;1201;-77
2022/06/22 01:05:56;;;;;;;3.55;3.25;;;;;;;17.97;48.16;100645.13;685032;28;1305;-77
2022/06/22 01:06:45;;;;;;;4.78;3.47;;;;;;;17.95;48.06;100647.81;680742;29;1101;-77
2022/06/22 01:07:34;;;;;;;7.38;3.00;;;;;;;17.95;48.15;100653.09;681618;29;1821;-77
2022/06/22 01:08:05;;;;;;;3.50;3.20;;;;;;;17.88;48.03;100638.16;682491;28;1112;-77
2022/06/22 01:08:38;;;;;;;3.60;3.30;;;;;;;17.91;48.10;100643.41;681375;28;1983;-76
2022/06/22 01:09:03;;;;;;;3.95;3.65;;;;;;;17.93;47.93;100657.47;677243;29;1515;-77
2022/06/22 01:09:55;;;;;;;3.85;3.55;;;;;;;17.91;48.14;100649.56;679416;29;1912;-77
2022/06/22 01:10:28;;;;;;;6.15;3.60;;;;;;;17.90;47.97;100644.28;679708;29;1981;-77
2022/06/22 01:11:05;;;;;;;5.00;3.45;;;;;;;17.81;47.93;100640.81;682400;29;1039;-77
2022/06/22 01:12:29;;;;;;;6.00;3.50;;;;;;;17.87;48.00;100650.47;684011;28;1018;-77
2022/06/22 01:13:07;;;;;;;6.15;3.42;;;;;;;17.79;47.95;100634.66;686376;28;978;-77
2022/06/22 01:13:43;;;;;;;4.32;3.35;;;;;;;17.85;48.33;100651.34;686005;28;1084;-77
2022/06/22 01:14:11;;;;;;;3.70;3.40;;;;;;;17.86;48.00;100653.09;684738;28;1068;-78
2022/06/22 01:14:34;;;;;;;4.95;3.45;;;;;;;17.85;47.86;100646.06;682672;28;1473;-77
2022/06/22 01:15:01;;;;;;;5.90;3.45;;;;;;;17.81;47.95;100642.56;679498;29;1915;-77
2022/06/22 01:15:47;;;;;;;4.75;3.17;;;;;;;17.80;47.73;100646.97;683109;28;1233;-77
2022/06/22 01:16:17;;;;;;;3.85;3.10;;;;;;;17.78;47.80;100640.81;681592;29;1232;-77
2022/06/22 01:16:42;;;;;;;5.72;3.28;;;;;;;17.79;47.70;100642.59;687429;28;1145;-77
2022/06/22 01:17:06;;;;;;;5.63;3.30;;;;;;;17.80;47.70;100641.69;681053;29;1473;-77
2022/06/22 01:17:34;;;;;;;6.57;3.33;;;;;;;17.86;47.66;100653.09;683265;28;1046;-77
2022/06/22 01:18:09;;;;;;;5.20;3.28;;;;;;;17.85;47.55;100646.97;679818;29;1028;-77
2022/06/22 01:18:37;;;;;;;5.75;3.47;;;;;;;17.83;47.52;100639.94;685067;28;1087;-77
2022/06/22 01:19:14;;;;;;;7.18;3.42;;;;;;;17.81;47.54;100650.47;682516;29;788;-77
2022/06/22 01:19:47;;;;;;;5.10;3.10;;;;;;;17.83;47.47;100647.84;683881;28;1158;-77
2022/06/22 01:20:14;;;;;;;4.95;3.30;;;;;;;17.82;47.14;100641.69;684427;28;1111;-78
2022/06/22 01:20:45;;;;;;;3.88;3.10;;;;;;;17.78;47.21;100646.09;679912;29;1145;-77
2022/06/22 01:21:28;;;;;;;4.78;3.00;;;;;;;17.77;47.30;100644.34;679417;29;1160;-77
2022/06/22 01:22:04;;;;;;;5.20;3.40;;;;;;;17.73;47.16;100642.59;681999;28;1476;-78
2022/06/22 01:22:51;;;;;;;4.93;3.30;;;;;;;17.66;47.30;100627.69;678473;28;1007;-76
2022/06/22 01:23:29;;;;;;;4.60;3.20;;;;;;;17.70;47.10;100641.75;682509;28;1570;-77
2022/06/22 01:24:08;;;;;;;5.05;3.15;;;;;;;17.70;47.18;100642.59;677065;29;1186;-76
2022/06/22 01:24:49;;;;;;;4.90;3.30;;;;;;;17.58;47.28;100632.09;682139;29;1771;-77
2022/06/22 01:25:14;;;;;;;4.47;3.10;;;;;;;17.62;47.32;100642.63;681979;29;1072;-77
2022/06/22 01:25:49;;;;;;;3.83;3.10;;;;;;;17.62;47.29;100649.66;682178;29;1962;-76
2022/06/22 01:26:28;;;;;;;4.20;3.20;;;;;;;17.58;47.19;100647.94;680314;28;1692;-77
2022/06/22 01:27:25;;;;;;;5.30;3.20;;;;;;;17.53;47.19;100651.44;682293;29;1088;-76
2022/06/22 01:27:46;;;;;;;7.13;3.40;;;;;;;17.47;47.39;100640.94;686383;28;1936;-77
2022/06/22 01:28:11;;;;;;;7.97;3.50;;;;;;;17.47;47.36;100646.22;684586;28;1965;-77
2022/06/22 01:28:32;;;;;;;6.75;3.40;;;;;;;17.46;47.31;100641.78;682246;28;1978;-77
2022/06/22 01:28:55;;;;;;;4.30;3.27;;;;;;;17.43;47.48;100639.19;682537;29;1184;-77
2022/06/22 01:29:25;;;;;;;3.60;3.30;;;;;;;17.48;47.33;100655.00;680463;29;1200;-77
2022/06/22 01:29:55;;;;;;;4.03;3.35;;;;;;;17.39;47.38;100642.69;675972;29;1286;-77
2022/06/22 01:30:38;;;;;;;4.50;3.30;;;;;;;17.43;47.51;100644.47;679491;29;2019;-77
2022/06/22 01:31:05;;;;;;;4.45;3.22;;;;;;;17.36;47.57;100642.72;679628;29;1195;-77
2022/06/22 01:31:29;;;;;;;3.85;3.03;;;;;;;17.34;47.57;100641.84;678984;29;1069;-77
2022/06/22 01:31:56;;;;;;;3.83;3.10;;;;;;;17.35;47.51;100646.22;679661;29;1847;-77
2022/06/22 01:32:22;;;;;;;4.10;3.30;;;;;;;17.33;47.56;100642.72;679432;29;1420;-77
2022/06/22 01:32:43;;;;;;;5.57;3.42;;;;;;;17.31;47.73;100644.47;682384;29;1356;-77
2022/06/22 01:33:14;;;;;;;4.72;3.30;;;;;;;17.20;47.70;100632.16;682334;29;1049;-77
2022/06/22 01:33:39;;;;;;;4.30;3.20;;;;;;;17.25;47.73;100643.63;681574;29;1325;-77
2022/06/22 01:34:01;;;;;;;3.47;3.17;;;;;;;17.21;47.84;100640.97;677844;29;892;-77
2022/06/22 01:34:25;;;;;;;3.50;3.20;;;;;;;17.15;47.99;100631.28;680072;29;1276;-77
2022/06/22 01:34:47;;;;;;;4.80;3.35;;;;;;;17.15;48.25;100627.78;682358;29;1303;-77
2022/06/22 01:35:38;;;;;;;5.30;3.30;;;;;;;17.09;48.35;100631.31;683480;28;1760;-77
2022/06/22 01:36:06;;;;;;;4.60;3.33;;;;;;;17.11;48.36;100638.31;679159;29;1450;-77
2022/06/22 01:36:30;;;;;;;4.07;3.30;;;;;;;17.09;48.16;100633.94;682324;28;1524;-76
2022/06/22 01:36:52;;;;;;;3.40;3.10;;;;;;;17.09;48.41;100639.22;685193;28;1045;-77
2022/06/22 01:37:18;;;;;;;3.65;3.17;;;;;;;17.07;48.41;100638.31;682381;29;938;-77
2022/06/22 01:37:44;;;;;;;10.30;3.63;;;;;;;16.99;48.46;100625.16;679496;29;1133;-77
2022/06/22 01:38:32;;;;;;;10.90;3.90;;;;;;;17.04;48.50;100640.97;679584;29;1193;-77
2022/06/22 01:38:53;;;;;;;4.45;3.55;;;;;;;16.93;48.73;100628.69;681470;28;1206;-77
2022/06/22 01:39:14;;;;;;;4.93;3.70;;;;;;;16.89;48.58;100624.28;681719;29;1371;-77
2022/06/22 01:39:35;;;;;;;5.30;3.70;;;;;;;16.96;48.68;100644.50;682024;28;1080;-77
2022/06/22 01:40:20;;;;;;;5.50;3.45;;;;;;;16.94;48.79;100643.63;681054;29;1087;-77
2022/06/22 01:40:55;;;;;;;6.07;3.80;;;;;;;16.81;48.94;100618.13;682048;29;1331;-76
2022/06/22 01:41:46;;;;;;;3.53;3.22;;;;;;;16.89;49.17;100633.97;679459;29;2063;-77
2022/06/22 01:42:32;;;;;;;5.45;3.63;;;;;;;16.84;49.13;100633.97;680265;29;1132;-77
2022/06/22 01:42:58;;;;;;;3.90;3.50;;;;;;;16.84;49.23;100631.34;687560;28;1727;-76
2022/06/22 01:43:31;;;;;;;4.00;3.40;;;;;;;16.75;49.49;100623.41;684651;28;1941;-77
2022/06/22 01:43:57;;;;;;;4.30;3.53;;;;;;;16.70;49.41;100613.75;679577;29;963;-77
2022/06/22 01:44:46;;;;;;;5.53;3.70;;;;;;;16.79;49.41;100627.81;676878;29;2011;-76
2022/06/22 01:45:15;;;;;;;6.10;3.75;;;;;;;16.76;49.50;100615.50;684976;28;986;-77
2022/06/22 01:46:10;;;;;;;7.15;4.55;;;;;;;16.75;49.56;100624.28;683926;28;1348;-77
2022/06/22 01:47:08;;;;;;;4.50;3.90;;;;;;;16.74;49.59;100626.91;684584;28;1419;-77
2022/06/22 01:47:34;;;;;;;5.82;3.70;;;;;;;16.70;49.78;100618.13;684807;28;1405;-76
2022/06/22 01:48:05;;;;;;;5.10;3.45;;;;;;;16.66;49.77;100619.91;682685;28;1216;-77
2022/06/22 01:48:35;;;;;;;4.40;3.15;;;;;;;16.68;49.93;100628.69;681723;29;2005;-77
2022/06/22 01:49:06;;;;;;;4.78;3.60;;;;;;;16.66;49.93;100625.16;679716;29;1044;-77
2022/06/22 01:49:41;;;;;;;4.97;3.90;;;;;;;16.60;49.95;100619.91;681736;29;1935;-77
2022/06/22 01:50:02;;;;;;;4.97;3.50;;;;;;;16.64;49.84;100634.84;683977;28;1748;-77
2022/06/22 01:50:30;;;;;;;5.63;3.40;;;;;;;16.61;49.89;100629.56;682139;29;1970;-77
2022/06/22 01:50:59;;;;;;;4.32;3.47;;;;;;;16.53;49.71;100619.00;682250;29;1157;-77
2022/06/22 01:51:31;;;;;;;4.47;3.50;;;;;;;16.52;49.94;100635.69;681566;28;1745;-77
2022/06/22 01:51:59;;;;;;;4.60;3.40;;;;;;;16.49;50.09;100626.91;683071;28;1010;-77
2022/06/22 01:53:00;;;;;;;4.20;3.30;;;;;;;16.44;50.28;100629.53;684880;28;1549;-77
2022/06/22 01:53:29;;;;;;;4.22;3.58;;;;;;;16.42;50.13;100636.56;675367;29;1286;-77
2022/06/22 01:54:15;;;;;;;4.05;3.40;;;;;;;16.40;50.33;100644.47;684875;28;977;-77
2022/06/22 01:54:57;;;;;;;4.32;3.55;;;;;;;16.39;50.33;100647.97;687076;28;1101;-76
2022/06/22 01:55:47;;;;;;;4.93;3.88;;;;;;;16.39;50.42;100645.34;687138;28;1058;-77
2022/06/22 01:56:17;;;;;;;4.95;3.38;;;;;;;16.37;50.35;100646.22;688198;28;965;-76
2022/06/22 01:56:43;;;;;;;4.63;3.53;;;;;;;16.41;50.34;100650.63;689169;28;1113;-77
2022/06/22 01:57:22;;;;;;;4.50;3.70;;;;;;;16.37;50.30;100644.47;682841;29;1400;-77
2022/06/22 01:57:56;;;;;;;6.22;3.72;;;;;;;16.34;50.13;100636.53;677700;29;963;-77
2022/06/22 01:58:17;;;;;;;6.47;3.78;;;;;;;16.41;50.53;100642.72;679457;29;1420;-77
2022/06/22 01:58:37;;;;;;;6.68;3.92;;;;;;;16.41;50.37;100648.84;680204;29;1220;-77
2022/06/22 01:59:29;;;;;;;6.15;3.78;;;;;;;16.34;50.33;100633.06;680230;29;1147;-77
2022/06/22 01:59:58;;;;;;;5.57;3.50;;;;;;;16.37;50.47;100644.47;681730;29;1232;-77
2022/06/22 02:00:19;;;;;;;6.55;3.83;;;;;;;16.40;50.46;100644.47;682660;28;1999;-77
2022/06/22 02:00:43;;;;;;;6.35;4.03;;;;;;;16.38;50.37;100647.97;677577;29;1488;-77
2022/06/22 02:01:28;;;;;;;4.10;3.70;;;;;;;16.36;50.31;100642.72;680189;29;1253;-77
2022/06/22 02:02:02;;;;;;;4.40;3.50;;;;;;;16.42;50.50;100642.69;677454;29;2070;-76
2022/06/22 02:02:32;;;;;;;7.63;3.85;;;;;;;16.40;50.46;100644.47;677490;29;1959;-76
2022/06/22 02:03:25;;;;;;;7.88;3.85;;;;;;;16.37;50.39;100639.19;680220;29;1050;-77
2022/06/22 02:04:37;;;;;;;3.92;3.35;;;;;;;16.34;50.18;100639.19;685090;28;1818;-76
2022/06/22 02:05:12;;;;;;;4.13;3.72;;;;;;;16.30;50.40;100645.34;690877;28;1231;-77
2022/06/22 02:05:43;;;;;;;5.07;3.90;;;;;;;16.25;50.69;100639.16;686334;28;1300;-77
2022/06/22 02:08:28;;;;;;;4.65;3.70;;;;;;;16.11;51.29;100639.09;679789;29;1097;-77
2022/06/22 02:08:52;;;;;;;5.80;3.72;;;;;;;16.05;51.37;100632.06;673221;29;1255;-76
2022/06/22 02:09:23;;;;;;;5.70;3.67;;;;;;;16.04;51.28;100632.91;674356;29;1220;-76
2022/06/22 02:10:09;;;;;;;5.22;3.78;;;;;;;16.09;51.61;100638.22;674004;29;1300;-77
2022/06/22 02:10:51;;;;;;;6.10;4.10;;;;;;;15.99;51.51;100624.16;682275;29;1092;-77
2022/06/22 02:11:26;;;;;;;4.60;4.00;;;;;;;16.02;51.69;100629.41;680062;29;1873;-77
2022/06/22 02:12:18;;;;;;;4.15;3.75;;;;;;;16.04;51.74;100625.03;682778;28;1053;-77
2022/06/22 02:12:40;;;;;;;4.70;3.90;;;;;;;16.02;51.80;100616.25;684546;28;1240;-77
2022/06/22 02:13:31;;;;;;;5.07;3.60;;;;;;;16.11;51.83;100626.81;683013;29;792;-77
2022/06/22 02:14:21;;;;;;;5.95;4.10;;;;;;;16.10;51.93;100627.69;679785;29;1261;-76
2022/06/22 02:14:48;;;;;;;4.50;3.88;;;;;;;16.13;52.05;100634.72;687947;28;1381;-77
2022/06/22 02:15:44;;;;;;;6.47;4.00;;;;;;;16.12;51.71;100631.19;682507;29;2030;-77
2022/06/22 02:16:11;;;;;;;6.05;3.90;;;;;;;16.09;51.55;100630.34;681232;29;1218;-77
2022/06/22 02:17:13;;;;;;;5.07;3.78;;;;;;;16.08;51.43;100636.44;683817;28;1658;-76
2022/06/22 02:17:54;;;;;;;4.28;3.75;;;;;;;15.97;51.29;100626.78;688857;28;1093;-77
2022/06/22 02:18:22;;;;;;;5.57;3.80;;;;;;;15.97;51.52;100631.16;690645;28;1004;-77
2022/06/22 02:18:49;;;;;;;5.60;3.90;;;;;;;15.89;51.68;100621.50;689758;28;1527;-77
2022/06/22 02:19:14;;;;;;;3.83;3.40;;;;;;;15.94;51.55;100639.03;684676;28;1553;-77
2022/06/22 02:19:38;;;;;;;3.67;3.35;;;;;;;15.92;51.83;100640.78;681600;29;1838;-77
2022/06/22 02:20:15;;;;;;;4.50;3.50;;;;;;;15.89;51.90;100645.19;680222;29;1148;-77
2022/06/22 02:20:38;;;;;;;6.47;3.88;;;;;;;15.82;51.92;100635.50;680877;29;1140;-77
2022/06/22 02:21:13;;;;;;;6.88;3.90;;;;;;;15.86;51.97;100642.50;682688;29;852;-77
2022/06/22 02:21:38;;;;;;;5.18;3.78;;;;;;;15.83;52.02;100637.25;682153;29;1106;-77
2022/06/22 02:22:01;;;;;;;4.50;3.80;;;;;;;15.79;52.01;100635.47;682951;29;2037;-77
2022/06/22 02:22:23;;;;;;;4.30;3.90;;;;;;;15.79;51.87;100639.88;684194;28;1931;-76
2022/06/22 02:22:47;;;;;;;3.90;3.60;;;;;;;15.77;51.95;100637.22;685523;28;1312;-77
2022/06/22 02:23:19;;;;;;;4.10;3.70;;;;;;;15.78;51.85;100646.88;683371;28;1281;-77
2022/06/22 02:23:40;;;;;;;5.63;3.70;;;;;;;15.77;52.19;100639.84;683017;29;1053;-76
2022/06/22 02:24:39;;;;;;;5.50;3.65;;;;;;;15.80;52.27;100647.75;685620;28;823;-77
2022/06/22 02:25:00;;;;;;;5.10;3.60;;;;;;;15.81;52.21;100641.63;685290;28;1283;-76
2022/06/22 02:25:24;;;;;;;7.30;3.70;;;;;;;15.78;52.22;100646.88;681254;29;1097;-77
2022/06/22 02:26:01;;;;;;;6.38;3.47;;;;;;;15.79;52.24;100639.88;677054;29;2049;-76
2022/06/22 02:26:46;;;;;;;5.50;3.58;;;;;;;15.79;52.21;100651.25;677168;29;1079;-76
2022/06/22 02:27:14;;;;;;;4.45;3.50;;;;;;;15.77;52.04;100645.13;680872;29;958;-77
2022/06/22 02:27:36;;;;;;;4.65;3.58;;;;;;;15.77;52.14;100658.28;680272;29;1385;-77
2022/06/22 02:27:56;;;;;;;5.20;3.70;;;;;;;15.71;52.12;100648.59;683031;29;780;-77
2022/06/22 02:28:19;;;;;;;5.63;3.80;;;;;;;15.71;52.10;100656.50;682711;29;1243;-77
2022/06/22 02:28:42;;;;;;;6.38;3.80;;;;;;;15.72;52.34;100652.09;684837;28;1518;-77
2022/06/22 02:29:03;;;;;;;5.65;3.60;;;;;;;15.73;52.07;100660.00;682652;29;1130;-77
2022/06/22 02:29:32;;;;;;;5.68;3.60;;;;;;;15.74;52.20;100667.03;679364;29;1427;-77
2022/06/22 02:29:57;;;;;;;5.55;3.53;;;;;;;15.69;52.21;100654.72;682723;28;943;-76
2022/06/22 02:30:19;;;;;;;5.50;3.70;;;;;;;15.69;52.16;100657.34;685246;28;1963;-76
2022/06/22 02:30:42;;;;;;;4.18;3.50;;;;;;;15.67;52.21;100653.84;679939;29;1472;-76
2022/06/22 02:31:23;;;;;;;5.65;3.80;;;;;;;15.72;52.16;100652.09;680240;29;848;-77
2022/06/22 02:31:44;;;;;;;5.20;3.97;;;;;;;15.68;52.19;100656.47;679258;29;1394;-76
2022/06/22 02:32:10;;;;;;;5.00;3.75;;;;;;;15.66;52.33;100647.69;677551;29;1117;-77
2022/06/22 02:32:40;;;;;;;5.45;3.60;;;;;;;15.71;52.15;100659.13;678978;29;2104;-76
2022/06/22 02:33:01;;;;;;;4.50;3.70;;;;;;;15.63;51.89;100642.44;680200;29;887;-77
2022/06/22 02:33:33;;;;;;;5.18;3.80;;;;;;;15.65;52.20;100647.66;682526;29;1041;-77